sensor_id;sensor_type;location;lat;lon;timestamp;pressure;altitude;pressure_sealevel;temperature;humidity
49178;BME280;35016;55.674;37.468;2022-12-18T00:01:34;98459.94;;;-3.43;75.98
49178;BME280;35016;55.674;37.468;2022-12-18T00:04:07;98440.75;;;-3.45;75.79
49178;BME280;35016;55.674;37.468;2022-12-18T00:06:35;98444.16;;;-3.51;75.77
49178;BME280;35016;55.674;37.468;2022-12-18T00:09:03;98440.31;;;-3.49;75.47
49178;BME280;35016;55.674;37.468;2022-12-18T00:11:31;98452.38;;;-3.46;75.49
49178;BME280;35016;55.674;37.468;2022-12-18T00:13:59;98421.75;;;-3.55;75.59
49178;BME280;35016;55.674;37.468;2022-12-18T00:16:28;98436.66;;;-3.48;75.73
49178;BME280;35016;55.674;37.468;2022-12-18T00:18:58;98445.88;;;-3.44;75.78
49178;BME280;35016;55.674;37.468;2022-12-18T00:21:27;98420.31;;;-3.51;75.64
49178;BME280;35016;55.674;37.468;2022-12-18T00:23:57;98426.31;;;-3.42;75.87
49178;BME280;35016;55.674;37.468;2022-12-18T00:26:31;98423.22;;;-3.46;75.60
49178;BME280;35016;55.674;37.468;2022-12-18T00:29:05;98403.28;;;-3.42;75.97
49178;BME280;35016;55.674;37.468;2022-12-18T00:31:33;98416.53;;;-3.42;75.44
49178;BME280;35016;55.674;37.468;2022-12-18T00:34:00;98403.06;;;-3.40;75.75
49178;BME280;35016;55.674;37.468;2022-12-18T00:36:33;98399.75;;;-3.49;75.61
49178;BME280;35016;55.674;37.468;2022-12-18T00:39:03;98412.47;;;-3.38;75.67
49178;BME280;35016;55.674;37.468;2022-12-18T00:41:34;98404.09;;;-3.41;75.73
49178;BME280;35016;55.674;37.468;2022-12-18T00:44:20;98392.91;;;-3.37;75.46
49178;BME280;35016;55.674;37.468;2022-12-18T00:46:54;98384.88;;;-3.50;75.35
49178;BME280;35016;55.674;37.468;2022-12-18T00:49:22;98394.50;;;-3.42;75.36
49178;BME280;35016;55.674;37.468;2022-12-18T00:51:50;98386.94;;;-3.46;75.31
49178;BME280;35016;55.674;37.468;2022-12-18T00:54:17;98381.41;;;-3.51;75.49
49178;BME280;35016;55.674;37.468;2022-12-18T00:56:44;98364.03;;;-3.60;75.32
49178;BME280;35016;55.674;37.468;2022-12-18T00:59:17;98364.50;;;-3.50;75.45
49178;BME280;35016;55.674;37.468;2022-12-18T01:01:47;98362.44;;;-3.54;75.33
49178;BME280;35016;55.674;37.468;2022-12-18T01:04:14;98355.72;;;-3.50;75.69
49178;BME280;35016;55.674;37.468;2022-12-18T01:06:44;98355.09;;;-3.52;75.53
49178;BME280;35016;55.674;37.468;2022-12-18T01:09:11;98376.53;;;-3.47;75.38
49178;BME280;35016;55.674;37.468;2022-12-18T01:11:39;98352.50;;;-3.46;75.62
49178;BME280;35016;55.674;37.468;2022-12-18T01:14:06;98344.56;;;-3.46;75.13
49178;BME280;35016;55.674;37.468;2022-12-18T01:16:33;98343.34;;;-3.43;75.50
49178;BME280;35016;55.674;37.468;2022-12-18T01:19:06;98333.16;;;-3.46;75.53
49178;BME280;35016;55.674;37.468;2022-12-18T01:21:33;98333.16;;;-3.46;75.18
49178;BME280;35016;55.674;37.468;2022-12-18T01:24:03;98339.81;;;-3.50;74.93
49178;BME280;35016;55.674;37.468;2022-12-18T01:26:30;98352.44;;;-3.52;75.51
49178;BME280;35016;55.674;37.468;2022-12-18T01:28:58;98346.91;;;-3.64;75.33
49178;BME280;35016;55.674;37.468;2022-12-18T01:31:27;98367.13;;;-3.50;75.42
49178;BME280;35016;55.674;37.468;2022-12-18T01:33:56;98343.88;;;-3.61;74.90
49178;BME280;35016;55.674;37.468;2022-12-18T01:36:35;98343.25;;;-3.63;74.83
49178;BME280;35016;55.674;37.468;2022-12-18T01:39:10;98344.03;;;-3.69;74.67
49178;BME280;35016;55.674;37.468;2022-12-18T01:41:41;98345.06;;;-3.70;75.06
49178;BME280;35016;55.674;37.468;2022-12-18T01:50:36;98352.13;;;-3.77;75.04
49178;BME280;35016;55.674;37.468;2022-12-18T01:53:00;98357.63;;;-3.79;74.98
49178;BME280;35016;55.674;37.468;2022-12-18T01:55:31;98355.22;;;-3.73;75.31
49178;BME280;35016;55.674;37.468;2022-12-18T01:58:00;98342.56;;;-3.78;75.30
49178;BME280;35016;55.674;37.468;2022-12-18T02:00:28;98345.66;;;-3.75;75.18
49178;BME280;35016;55.674;37.468;2022-12-18T02:02:58;98346.84;;;-3.77;75.36
49178;BME280;35016;55.674;37.468;2022-12-18T02:05:49;98348.09;;;-3.73;74.99
49178;BME280;35016;55.674;37.468;2022-12-18T02:08:37;98340.31;;;-3.81;75.07
49178;BME280;35016;55.674;37.468;2022-12-18T02:11:17;98338.88;;;-3.84;75.43
49178;BME280;35016;55.674;37.468;2022-12-18T02:16:42;98346.16;;;-3.92;75.57
49178;BME280;35016;55.674;37.468;2022-12-18T02:19:27;98363.91;;;-3.86;75.46
49178;BME280;35016;55.674;37.468;2022-12-18T02:22:19;98358.19;;;-3.90;74.93
49178;BME280;35016;55.674;37.468;2022-12-18T02:25:19;98347.59;;;-3.90;75.64
49178;BME280;35016;55.674;37.468;2022-12-18T02:27:51;98359.19;;;-3.91;75.65
49178;BME280;35016;55.674;37.468;2022-12-18T02:30:20;98335.34;;;-3.97;75.41
49178;BME280;35016;55.674;37.468;2022-12-18T02:32:53;98322.50;;;-4.00;75.32
49178;BME280;35016;55.674;37.468;2022-12-18T02:35:23;98346.78;;;-3.90;74.61
49178;BME280;35016;55.674;37.468;2022-12-18T02:37:53;98346.56;;;-3.95;75.60
49178;BME280;35016;55.674;37.468;2022-12-18T02:40:23;98355.69;;;-3.98;75.90
49178;BME280;35016;55.674;37.468;2022-12-18T02:42:52;98342.84;;;-4.01;75.39
49178;BME280;35016;55.674;37.468;2022-12-18T02:45:19;98356.03;;;-4.08;75.59
49178;BME280;35016;55.674;37.468;2022-12-18T02:47:49;98364.78;;;-4.07;75.13
49178;BME280;35016;55.674;37.468;2022-12-18T02:50:26;98355.41;;;-4.10;75.38
49178;BME280;35016;55.674;37.468;2022-12-18T02:55:58;98359.25;;;-4.12;75.47
49178;BME280;35016;55.674;37.468;2022-12-18T03:02:29;98354.56;;;-4.17;74.71
49178;BME280;35016;55.674;37.468;2022-12-18T03:08:10;98347.34;;;-4.29;75.58
49178;BME280;35016;55.674;37.468;2022-12-18T03:10:51;98336.28;;;-4.40;75.32
49178;BME280;35016;55.674;37.468;2022-12-18T03:13:24;98360.31;;;-4.34;75.39
49178;BME280;35016;55.674;37.468;2022-12-18T03:15:55;98344.09;;;-4.31;75.36
49178;BME280;35016;55.674;37.468;2022-12-18T03:18:29;98321.75;;;-4.50;75.19
49178;BME280;35016;55.674;37.468;2022-12-18T03:21:00;98349.06;;;-4.43;75.52
49178;BME280;35016;55.674;37.468;2022-12-18T03:23:37;98366.63;;;-4.36;75.33
49178;BME280;35016;55.674;37.468;2022-12-18T03:26:10;98352.97;;;-4.39;75.63
49178;BME280;35016;55.674;37.468;2022-12-18T03:28:45;98361.53;;;-4.37;75.35
49178;BME280;35016;55.674;37.468;2022-12-18T03:31:14;98359.47;;;-4.42;74.90
49178;BME280;35016;55.674;37.468;2022-12-18T03:33:52;98357.19;;;-4.45;75.07
49178;BME280;35016;55.674;37.468;2022-12-18T03:36:24;98348.97;;;-4.56;75.20
49178;BME280;35016;55.674;37.468;2022-12-18T03:38:52;98335.13;;;-4.58;75.53
49178;BME280;35016;55.674;37.468;2022-12-18T03:41:44;98337.38;;;-4.55;75.15
49178;BME280;35016;55.674;37.468;2022-12-18T03:50:22;98348.91;;;-4.63;75.38
49178;BME280;35016;55.674;37.468;2022-12-18T03:53:11;98340.34;;;-4.65;75.56
49178;BME280;35016;55.674;37.468;2022-12-18T03:55:45;98354.53;;;-4.73;75.85
49178;BME280;35016;55.674;37.468;2022-12-18T03:58:16;98356.22;;;-4.65;75.40
49178;BME280;35016;55.674;37.468;2022-12-18T04:01:00;98357.84;;;-4.64;75.84
49178;BME280;35016;55.674;37.468;2022-12-18T04:03:31;98344.38;;;-4.69;75.28
49178;BME280;35016;55.674;37.468;2022-12-18T04:06:03;98346.63;;;-4.66;75.57
49178;BME280;35016;55.674;37.468;2022-12-18T04:08:32;98367.16;;;-4.68;75.66
49178;BME280;35016;55.674;37.468;2022-12-18T04:11:05;98362.25;;;-4.71;75.34
49178;BME280;35016;55.674;37.468;2022-12-18T04:13:36;98384.88;;;-4.69;75.87
49178;BME280;35016;55.674;37.468;2022-12-18T04:16:14;98414.59;;;-4.67;75.23
49178;BME280;35016;55.674;37.468;2022-12-18T04:18:43;98404.38;;;-4.70;75.28
49178;BME280;35016;55.674;37.468;2022-12-18T04:21:10;98393.22;;;-4.65;75.36
49178;BME280;35016;55.674;37.468;2022-12-18T04:23:37;98382.66;;;-4.65;75.50
49178;BME280;35016;55.674;37.468;2022-12-18T04:26:06;98424.72;;;-4.70;74.98
49178;BME280;35016;55.674;37.468;2022-12-18T04:28:49;98406.84;;;-4.68;75.21
49178;BME280;35016;55.674;37.468;2022-12-18T04:31:16;98405.78;;;-4.74;75.46
49178;BME280;35016;55.674;37.468;2022-12-18T04:33:43;98409.44;;;-4.75;75.16
49178;BME280;35016;55.674;37.468;2022-12-18T04:36:10;98415.16;;;-4.71;75.50
49178;BME280;35016;55.674;37.468;2022-12-18T04:38:40;98433.78;;;-4.79;75.25
49178;BME280;35016;55.674;37.468;2022-12-18T04:41:11;98448.47;;;-4.77;75.73
49178;BME280;35016;55.674;37.468;2022-12-18T04:43:40;98423.97;;;-4.85;75.72
49178;BME280;35016;55.674;37.468;2022-12-18T04:46:08;98443.09;;;-4.83;75.56
49178;BME280;35016;55.674;37.468;2022-12-18T04:48:37;98444.31;;;-4.86;75.60
49178;BME280;35016;55.674;37.468;2022-12-18T04:51:05;98431.19;;;-4.94;75.94
49178;BME280;35016;55.674;37.468;2022-12-18T04:53:32;98418.59;;;-4.92;76.15
49178;BME280;35016;55.674;37.468;2022-12-18T04:56:11;98450.31;;;-4.92;75.76
49178;BME280;35016;55.674;37.468;2022-12-18T04:58:40;98418.53;;;-4.99;75.62
49178;BME280;35016;55.674;37.468;2022-12-18T05:01:08;98423.25;;;-4.94;76.01
49178;BME280;35016;55.674;37.468;2022-12-18T05:03:35;98435.00;;;-4.96;76.08
49178;BME280;35016;55.674;37.468;2022-12-18T05:06:07;98437.09;;;-4.92;76.02
49178;BME280;35016;55.674;37.468;2022-12-18T05:08:34;98447.84;;;-4.93;75.84
49178;BME280;35016;55.674;37.468;2022-12-18T05:11:04;98434.19;;;-4.97;75.98
49178;BME280;35016;55.674;37.468;2022-12-18T05:13:33;98428.81;;;-4.89;75.88
49178;BME280;35016;55.674;37.468;2022-12-18T05:16:01;98447.03;;;-4.94;75.51
49178;BME280;35016;55.674;37.468;2022-12-18T05:18:28;98463.28;;;-4.97;75.64
49178;BME280;35016;55.674;37.468;2022-12-18T05:20:55;98457.34;;;-4.99;75.49
49178;BME280;35016;55.674;37.468;2022-12-18T05:23:24;98456.91;;;-5.03;76.03
49178;BME280;35016;55.674;37.468;2022-12-18T05:28:28;98489.06;;;-4.99;75.73
49178;BME280;35016;55.674;37.468;2022-12-18T05:30:57;98484.59;;;-4.99;75.69
49178;BME280;35016;55.674;37.468;2022-12-18T05:33:27;98489.06;;;-4.99;75.70
49178;BME280;35016;55.674;37.468;2022-12-18T05:36:00;98474.22;;;-5.00;75.65
49178;BME280;35016;55.674;37.468;2022-12-18T05:38:31;98490.63;;;-5.05;75.47
49178;BME280;35016;55.674;37.468;2022-12-18T05:41:01;98509.84;;;-4.96;74.95
49178;BME280;35016;55.674;37.468;2022-12-18T05:43:28;98518.78;;;-4.97;75.57
49178;BME280;35016;55.674;37.468;2022-12-18T05:46:03;98497.75;;;-5.05;75.63
49178;BME280;35016;55.674;37.468;2022-12-18T05:48:31;98512.59;;;-5.04;75.47
49178;BME280;35016;55.674;37.468;2022-12-18T05:51:05;98525.44;;;-5.01;75.08
49178;BME280;35016;55.674;37.468;2022-12-18T05:53:35;98520.53;;;-5.04;75.46
49178;BME280;35016;55.674;37.468;2022-12-18T05:56:10;98509.63;;;-5.16;75.36
49178;BME280;35016;55.674;37.468;2022-12-18T05:58:38;98515.81;;;-5.09;75.79
49178;BME280;35016;55.674;37.468;2022-12-18T06:01:19;98523.16;;;-5.04;75.29
49178;BME280;35016;55.674;37.468;2022-12-18T06:03:54;98524.81;;;-5.03;75.46
49178;BME280;35016;55.674;37.468;2022-12-18T06:06:24;98538.41;;;-5.06;75.31
49178;BME280;35016;55.674;37.468;2022-12-18T06:08:52;98533.22;;;-5.14;75.43
49178;BME280;35016;55.674;37.468;2022-12-18T06:11:23;98565.47;;;-5.04;75.90
49178;BME280;35016;55.674;37.468;2022-12-18T06:13:53;98553.06;;;-5.04;75.83
49178;BME280;35016;55.674;37.468;2022-12-18T06:16:25;98547.59;;;-5.02;75.35
49178;BME280;35016;55.674;37.468;2022-12-18T06:19:01;98555.72;;;-5.04;75.75
49178;BME280;35016;55.674;37.468;2022-12-18T06:21:29;98573.75;;;-5.07;75.38
49178;BME280;35016;55.674;37.468;2022-12-18T06:24:00;98561.28;;;-5.13;75.37
49178;BME280;35016;55.674;37.468;2022-12-18T06:26:27;98585.16;;;-5.07;75.93
49178;BME280;35016;55.674;37.468;2022-12-18T06:28:55;98555.34;;;-5.15;75.44
49178;BME280;35016;55.674;37.468;2022-12-18T06:31:22;98549.34;;;-5.09;75.71
49178;BME280;35016;55.674;37.468;2022-12-18T06:33:52;98567.28;;;-5.05;75.57
49178;BME280;35016;55.674;37.468;2022-12-18T06:36:31;98596.53;;;-5.06;75.25
49178;BME280;35016;55.674;37.468;2022-12-18T06:39:04;98609.03;;;-5.00;75.45
49178;BME280;35016;55.674;37.468;2022-12-18T06:41:32;98610.22;;;-5.03;75.06
49178;BME280;35016;55.674;37.468;2022-12-18T06:44:00;98613.25;;;-4.91;75.34
49178;BME280;35016;55.674;37.468;2022-12-18T06:46:27;98619.03;;;-4.95;74.99
49178;BME280;35016;55.674;37.468;2022-12-18T06:48:54;98632.84;;;-4.85;74.93
49178;BME280;35016;55.674;37.468;2022-12-18T06:51:25;98615.59;;;-4.96;74.63
49178;BME280;35016;55.674;37.468;2022-12-18T06:54:01;98635.47;;;-4.85;74.94
49178;BME280;35016;55.674;37.468;2022-12-18T06:56:28;98641.03;;;-4.80;74.51
49178;BME280;35016;55.674;37.468;2022-12-18T06:58:56;98627.09;;;-4.89;74.76
49178;BME280;35016;55.674;37.468;2022-12-18T07:01:23;98653.44;;;-4.81;74.77
49178;BME280;35016;55.674;37.468;2022-12-18T07:03:57;98652.06;;;-4.77;74.30
49178;BME280;35016;55.674;37.468;2022-12-18T07:06:26;98644.22;;;-4.85;74.60
49178;BME280;35016;55.674;37.468;2022-12-18T07:13:46;98629.00;;;-4.83;74.30
49178;BME280;35016;55.674;37.468;2022-12-18T07:16:16;98654.25;;;-4.80;74.29
49178;BME280;35016;55.674;37.468;2022-12-18T07:18:51;98671.84;;;-4.73;74.21
49178;BME280;35016;55.674;37.468;2022-12-18T07:21:33;98678.84;;;-4.65;74.70
49178;BME280;35016;55.674;37.468;2022-12-18T07:24:01;98682.31;;;-4.64;74.25
49178;BME280;35016;55.674;37.468;2022-12-18T07:26:28;98641.84;;;-4.94;73.88
49178;BME280;35016;55.674;37.468;2022-12-18T07:28:57;98703.47;;;-4.64;74.04
49178;BME280;35016;55.674;37.468;2022-12-18T07:31:25;98689.00;;;-4.69;74.07
49178;BME280;35016;55.674;37.468;2022-12-18T07:33:53;98657.09;;;-4.82;73.53
49178;BME280;35016;55.674;37.468;2022-12-18T07:36:21;98684.63;;;-4.61;73.84
49178;BME280;35016;55.674;37.468;2022-12-18T07:38:49;98677.16;;;-4.87;73.97
49178;BME280;35016;55.674;37.468;2022-12-18T07:41:17;98681.34;;;-4.78;73.70
49178;BME280;35016;55.674;37.468;2022-12-18T07:43:46;98697.03;;;-4.62;73.47
49178;BME280;35016;55.674;37.468;2022-12-18T07:46:16;98676.41;;;-4.67;73.39
49178;BME280;35016;55.674;37.468;2022-12-18T07:48:44;98695.84;;;-4.59;74.16
49178;BME280;35016;55.674;37.468;2022-12-18T07:51:29;98690.94;;;-4.62;73.42
49178;BME280;35016;55.674;37.468;2022-12-18T07:53:56;98711.53;;;-4.58;73.96
49178;BME280;35016;55.674;37.468;2022-12-18T07:56:25;98712.09;;;-4.62;73.77
49178;BME280;35016;55.674;37.468;2022-12-18T07:58:54;98701.50;;;-4.62;73.59
49178;BME280;35016;55.674;37.468;2022-12-18T08:01:22;98717.47;;;-4.56;73.65
49178;BME280;35016;55.674;37.468;2022-12-18T08:03:49;98701.03;;;-4.51;73.59
49178;BME280;35016;55.674;37.468;2022-12-18T08:06:18;98733.97;;;-4.39;73.21
49178;BME280;35016;55.674;37.468;2022-12-18T08:08:56;98735.78;;;-4.40;72.79
49178;BME280;35016;55.674;37.468;2022-12-18T08:11:25;98754.94;;;-4.38;72.79
49178;BME280;35016;55.674;37.468;2022-12-18T08:13:53;98759.59;;;-4.40;73.02
49178;BME280;35016;55.674;37.468;2022-12-18T08:16:27;98748.56;;;-4.43;73.42
49178;BME280;35016;55.674;37.468;2022-12-18T08:18:55;98757.13;;;-4.41;72.42
49178;BME280;35016;55.674;37.468;2022-12-18T08:21:26;98769.91;;;-4.45;72.42
49178;BME280;35016;55.674;37.468;2022-12-18T08:23:55;98761.97;;;-4.45;72.56
49178;BME280;35016;55.674;37.468;2022-12-18T08:26:25;98784.16;;;-4.46;72.55
49178;BME280;35016;55.674;37.468;2022-12-18T08:28:54;98774.19;;;-4.44;72.67
49178;BME280;35016;55.674;37.468;2022-12-18T08:31:23;98783.69;;;-4.49;72.40
49178;BME280;35016;55.674;37.468;2022-12-18T08:33:54;98776.94;;;-4.52;72.96
49178;BME280;35016;55.674;37.468;2022-12-18T08:36:23;98787.44;;;-4.44;73.20
49178;BME280;35016;55.674;37.468;2022-12-18T08:38:52;98782.41;;;-4.39;72.74
49178;BME280;35016;55.674;37.468;2022-12-18T08:41:21;98801.69;;;-4.30;73.07
49178;BME280;35016;55.674;37.468;2022-12-18T08:43:53;98809.25;;;-4.27;72.62
49178;BME280;35016;55.674;37.468;2022-12-18T08:46:40;98797.94;;;-4.21;72.83
49178;BME280;35016;55.674;37.468;2022-12-18T08:49:08;98787.53;;;-4.22;72.50
49178;BME280;35016;55.674;37.468;2022-12-18T08:51:37;98800.97;;;-4.24;72.59
49178;BME280;35016;55.674;37.468;2022-12-18T08:54:05;98773.84;;;-4.26;72.88
49178;BME280;35016;55.674;37.468;2022-12-18T08:56:33;98776.22;;;-4.31;72.81
49178;BME280;35016;55.674;37.468;2022-12-18T08:59:01;98781.88;;;-4.19;73.27
49178;BME280;35016;55.674;37.468;2022-12-18T09:01:31;98762.06;;;-4.38;72.50
49178;BME280;35016;55.674;37.468;2022-12-18T09:04:00;98782.34;;;-4.30;73.11
49178;BME280;35016;55.674;37.468;2022-12-18T09:06:27;98772.28;;;-4.35;72.83
49178;BME280;35016;55.674;37.468;2022-12-18T09:08:57;98794.38;;;-4.28;72.70
49178;BME280;35016;55.674;37.468;2022-12-18T09:11:27;98819.09;;;-4.06;73.22
49178;BME280;35016;55.674;37.468;2022-12-18T09:13:56;98787.91;;;-4.25;73.00
49178;BME280;35016;55.674;37.468;2022-12-18T09:16:28;98788.28;;;-4.28;73.00
49178;BME280;35016;55.674;37.468;2022-12-18T09:19:03;98801.59;;;-4.22;72.53
49178;BME280;35016;55.674;37.468;2022-12-18T09:21:49;98829.81;;;-3.99;72.21
49178;BME280;35016;55.674;37.468;2022-12-18T09:24:17;98811.25;;;-4.14;72.95
49178;BME280;35016;55.674;37.468;2022-12-18T09:26:44;98818.84;;;-4.11;72.33
49178;BME280;35016;55.674;37.468;2022-12-18T09:29:14;98829.81;;;-3.99;72.34
49178;BME280;35016;55.674;37.468;2022-12-18T09:31:47;98849.44;;;-3.94;72.82
49178;BME280;35016;55.674;37.468;2022-12-18T09:34:16;98852.53;;;-3.90;72.81
49178;BME280;35016;55.674;37.468;2022-12-18T09:36:48;98846.78;;;-3.94;72.75
49178;BME280;35016;55.674;37.468;2022-12-18T09:39:15;98841.50;;;-3.94;73.07
49178;BME280;35016;55.674;37.468;2022-12-18T09:41:53;98864.13;;;-3.91;72.49
49178;BME280;35016;55.674;37.468;2022-12-18T09:44:38;98866.34;;;-3.95;72.52
49178;BME280;35016;55.674;37.468;2022-12-18T09:47:18;98898.09;;;-3.80;72.69
49178;BME280;35016;55.674;37.468;2022-12-18T09:49:49;98867.50;;;-3.83;72.52
49178;BME280;35016;55.674;37.468;2022-12-18T09:55:51;98836.13;;;-4.00;72.61
49178;BME280;35016;55.674;37.468;2022-12-18T10:00:42;98859.56;;;-3.83;72.84
49178;BME280;35016;55.674;37.468;2022-12-18T10:03:15;98855.75;;;-3.95;72.60
49178;BME280;35016;55.674;37.468;2022-12-18T10:06:15;98897.09;;;-3.79;72.62
49178;BME280;35016;55.674;37.468;2022-12-18T10:17:42;98884.22;;;-3.97;72.64
49178;BME280;35016;55.674;37.468;2022-12-18T10:20:03;98902.03;;;-3.91;73.22
49178;BME280;35016;55.674;37.468;2022-12-18T10:25:31;98886.16;;;-3.91;72.82
49178;BME280;35016;55.674;37.468;2022-12-18T10:28:16;98903.59;;;-3.96;72.23
49178;BME280;35016;55.674;37.468;2022-12-18T10:30:45;98905.59;;;-3.98;72.66
49178;BME280;35016;55.674;37.468;2022-12-18T10:33:21;98910.75;;;-4.05;73.08
49178;BME280;35016;55.674;37.468;2022-12-18T10:35:55;98909.06;;;-3.98;73.17
49178;BME280;35016;55.674;37.468;2022-12-18T10:38:25;98898.66;;;-3.99;73.15
49178;BME280;35016;55.674;37.468;2022-12-18T10:41:01;98915.38;;;-3.99;73.28
49178;BME280;35016;55.674;37.468;2022-12-18T10:43:31;98897.38;;;-4.03;73.13
49178;BME280;35016;55.674;37.468;2022-12-18T10:48:56;98935.78;;;-4.08;72.99
49178;BME280;35016;55.674;37.468;2022-12-18T10:51:31;98910.38;;;-4.31;73.69
49178;BME280;35016;55.674;37.468;2022-12-18T10:54:14;98938.97;;;-4.12;73.31
49178;BME280;35016;55.674;37.468;2022-12-18T10:56:43;98949.38;;;-4.11;73.13
49178;BME280;35016;55.674;37.468;2022-12-18T10:59:19;98948.28;;;-4.16;73.27
49178;BME280;35016;55.674;37.468;2022-12-18T11:01:57;98972.09;;;-4.16;73.74
49178;BME280;35016;55.674;37.468;2022-12-18T11:04:28;98954.19;;;-4.29;73.59
49178;BME280;35016;55.674;37.468;2022-12-18T11:07:00;98966.91;;;-4.10;73.33
49178;BME280;35016;55.674;37.468;2022-12-18T11:09:38;98966.81;;;-4.16;73.56
49178;BME280;35016;55.674;37.468;2022-12-18T11:12:19;98963.16;;;-4.15;73.44
49178;BME280;35016;55.674;37.468;2022-12-18T11:14:50;98973.47;;;-4.20;73.80
49178;BME280;35016;55.674;37.468;2022-12-18T11:19:58;98971.00;;;-4.22;73.67
49178;BME280;35016;55.674;37.468;2022-12-18T11:22:31;98968.81;;;-4.18;73.74
49178;BME280;35016;55.674;37.468;2022-12-18T11:25:03;98957.56;;;-4.20;74.23
49178;BME280;35016;55.674;37.468;2022-12-18T11:27:55;98968.88;;;-4.26;74.09
49178;BME280;35016;55.674;37.468;2022-12-18T11:30:35;98987.22;;;-4.25;74.31
49178;BME280;35016;55.674;37.468;2022-12-18T11:33:10;99010.22;;;-4.25;73.75
49178;BME280;35016;55.674;37.468;2022-12-18T11:35:51;98993.53;;;-4.26;74.27
49178;BME280;35016;55.674;37.468;2022-12-18T11:38:23;98974.34;;;-4.28;73.71
49178;BME280;35016;55.674;37.468;2022-12-18T11:41:00;98979.50;;;-4.34;74.23
49178;BME280;35016;55.674;37.468;2022-12-18T11:46:50;98995.16;;;-4.25;74.22
49178;BME280;35016;55.674;37.468;2022-12-18T11:49:27;99009.03;;;-4.23;74.24
49178;BME280;35016;55.674;37.468;2022-12-18T11:54:44;99008.03;;;-4.22;74.49
49178;BME280;35016;55.674;37.468;2022-12-18T11:57:39;99024.41;;;-4.18;74.01
49178;BME280;35016;55.674;37.468;2022-12-18T12:00:22;99027.75;;;-4.24;74.43
49178;BME280;35016;55.674;37.468;2022-12-18T12:05:57;99041.56;;;-4.14;74.08
49178;BME280;35016;55.674;37.468;2022-12-18T12:17:30;99072.50;;;-4.15;73.86
49178;BME280;35016;55.674;37.468;2022-12-18T12:23:33;99081.63;;;-4.17;73.48
49178;BME280;35016;55.674;37.468;2022-12-18T12:26:08;99083.16;;;-4.23;73.75
49178;BME280;35016;55.674;37.468;2022-12-18T12:28:44;99097.88;;;-4.20;74.45
49178;BME280;35016;55.674;37.468;2022-12-18T12:31:39;99104.34;;;-4.23;73.78
49178;BME280;35016;55.674;37.468;2022-12-18T12:37:30;99102.69;;;-4.24;74.35
49178;BME280;35016;55.674;37.468;2022-12-18T12:40:01;99123.38;;;-4.27;74.46
49178;BME280;35016;55.674;37.468;2022-12-18T12:42:52;99111.97;;;-4.28;74.39
49178;BME280;35016;55.674;37.468;2022-12-18T12:45:52;99128.50;;;-4.26;74.33
49178;BME280;35016;55.674;37.468;2022-12-18T12:51:17;99144.75;;;-4.37;74.52
49178;BME280;35016;55.674;37.468;2022-12-18T12:53:46;99154.34;;;-4.36;74.42
49178;BME280;35016;55.674;37.468;2022-12-18T12:56:18;99161.97;;;-4.33;74.72
49178;BME280;35016;55.674;37.468;2022-12-18T12:59:02;99152.03;;;-4.39;74.33
49178;BME280;35016;55.674;37.468;2022-12-18T13:04:48;99157.00;;;-4.36;74.22
49178;BME280;35016;55.674;37.468;2022-12-18T13:07:39;99171.56;;;-4.32;74.58
49178;BME280;35016;55.674;37.468;2022-12-18T13:13:03;99171.22;;;-4.37;74.02
49178;BME280;35016;55.674;37.468;2022-12-18T13:15:48;99192.56;;;-4.39;74.63
49178;BME280;35016;55.674;37.468;2022-12-18T13:18:21;99189.75;;;-4.37;74.57
49178;BME280;35016;55.674;37.468;2022-12-18T13:28:55;99194.25;;;-4.46;74.33
49178;BME280;35016;55.674;37.468;2022-12-18T13:36:56;99242.66;;;-4.29;74.39
49178;BME280;35016;55.674;37.468;2022-12-18T13:39:34;99238.84;;;-4.26;74.35
49178;BME280;35016;55.674;37.468;2022-12-18T13:44:33;99240.31;;;-4.24;74.36
49178;BME280;35016;55.674;37.468;2022-12-18T13:49:56;99255.69;;;-4.19;74.51
49178;BME280;35016;55.674;37.468;2022-12-18T13:52:37;99266.63;;;-4.22;74.10
49178;BME280;35016;55.674;37.468;2022-12-18T13:55:14;99274.38;;;-4.21;74.69
49178;BME280;35016;55.674;37.468;2022-12-18T13:57:43;99270.72;;;-4.12;74.61
49178;BME280;35016;55.674;37.468;2022-12-18T14:02:52;99278.22;;;-4.23;74.29
49178;BME280;35016;55.674;37.468;2022-12-18T14:05:30;99282.66;;;-4.16;74.53
49178;BME280;35016;55.674;37.468;2022-12-18T14:08:04;99307.47;;;-4.17;74.23
49178;BME280;35016;55.674;37.468;2022-12-18T14:10:35;99280.19;;;-4.25;74.88
49178;BME280;35016;55.674;37.468;2022-12-18T14:13:31;99308.50;;;-4.26;74.70
49178;BME280;35016;55.674;37.468;2022-12-18T14:16:03;99319.25;;;-4.36;74.29
49178;BME280;35016;55.674;37.468;2022-12-18T14:21:19;99320.44;;;-4.46;73.77
49178;BME280;35016;55.674;37.468;2022-12-18T14:23:47;99324.41;;;-4.50;74.05
49178;BME280;35016;55.674;37.468;2022-12-18T14:26:30;99343.41;;;-4.47;74.37
49178;BME280;35016;55.674;37.468;2022-12-18T14:29:23;99351.19;;;-4.45;74.40
49178;BME280;35016;55.674;37.468;2022-12-18T14:32:05;99347.22;;;-4.49;73.93
49178;BME280;35016;55.674;37.468;2022-12-18T14:34:40;99367.06;;;-4.45;74.32
49178;BME280;35016;55.674;37.468;2022-12-18T14:37:17;99329.34;;;-4.63;74.39
49178;BME280;35016;55.674;37.468;2022-12-18T14:40:17;99349.19;;;-4.43;73.56
49178;BME280;35016;55.674;37.468;2022-12-18T14:43:11;99382.94;;;-4.45;74.17
49178;BME280;35016;55.674;37.468;2022-12-18T14:45:41;99345.91;;;-4.53;74.02
49178;BME280;35016;55.674;37.468;2022-12-18T14:48:40;99355.31;;;-4.67;73.14
49178;BME280;35016;55.674;37.468;2022-12-18T14:51:21;99395.50;;;-4.39;73.77
49178;BME280;35016;55.674;37.468;2022-12-18T14:53:57;99379.97;;;-4.50;73.32
49178;BME280;35016;55.674;37.468;2022-12-18T14:56:34;99393.03;;;-4.49;73.79
49178;BME280;35016;55.674;37.468;2022-12-18T14:59:04;99408.09;;;-4.49;73.29
49178;BME280;35016;55.674;37.468;2022-12-18T15:01:37;99408.25;;;-4.59;73.86
49178;BME280;35016;55.674;37.468;2022-12-18T15:07:10;99411.88;;;-4.52;73.14
49178;BME280;35016;55.674;37.468;2022-12-18T15:10:19;99404.28;;;-4.55;73.28
49178;BME280;35016;55.674;37.468;2022-12-18T15:13:09;99423.31;;;-4.59;73.77
49178;BME280;35016;55.674;37.468;2022-12-18T15:15:54;99412.84;;;-4.69;72.96
49178;BME280;35016;55.674;37.468;2022-12-18T15:18:31;99406.25;;;-4.73;73.16